Time;durP1;ratioP1;P1;durP2;ratioP2;P2;SDS_P1;SDS_P2;PMS_P1;PMS_P2;Temp;Humidity;BMP_temperature;BMP_pressure;BME280_temperature;BME280_humidity;BME280_pressure;Samples;Min_cycle;Max_cycle;Signal;HPM_P1;HPM_P2
2022/07/26 00:00:30;;;;;;;16.85;8.55;;;14.50;99.90;;;;;;5034562;28;20191;-83
2022/07/26 00:03:01;;;;;;;14.63;7.88;;;14.50;99.90;;;;;;5034467;28;20607;-80
2022/07/26 00:05:36;;;;;;;12.32;7.22;;;14.60;99.90;;;;;;5034436;28;20645;-84
2022/07/26 00:08:13;;;;;;;12.77;7.03;;;14.70;99.90;;;;;;5034418;28;20224;-81
2022/07/26 00:10:47;;;;;;;10.00;6.95;;;14.90;99.90;;;;;;5034305;28;20190;-85
2022/07/26 00:13:19;;;;;;;11.32;7.40;;;15.00;99.90;;;;;;5046553;28;20193;-82
2022/07/26 00:15:50;;;;;;;11.30;7.47;;;15.20;99.90;;;;;;5034152;28;20190;-81
2022/07/26 00:18:22;;;;;;;11.98;6.88;;;15.20;99.90;;;;;;5043293;28;20200;-83
2022/07/26 00:20:55;;;;;;;12.20;6.65;;;15.40;99.90;;;;;;5014362;28;20187;-86
2022/07/26 00:23:26;;;;;;;8.55;5.32;;;15.40;99.90;;;;;;5014218;28;20202;-85
2022/07/26 00:25:56;;;;;;;9.43;6.15;;;15.50;99.90;;;;;;5014329;28;20346;-81
2022/07/26 00:28:27;;;;;;;13.15;5.80;;;15.70;99.90;;;;;;5015014;28;20229;-82
2022/07/26 00:30:58;;;;;;;6.88;4.32;;;15.80;99.90;;;;;;5033730;28;20199;-81
2022/07/26 00:33:28;;;;;;;7.70;3.90;;;15.90;99.90;;;;;;5033903;28;20210;-82
2022/07/26 00:36:01;;;;;;;8.20;5.35;;;15.90;99.90;;;;;;5036775;28;20233;-81
2022/07/26 00:38:31;;;;;;;11.25;5.82;;;16.10;99.90;;;;;;5041633;28;20201;-86
2022/07/26 00:41:02;;;;;;;11.02;5.80;;;16.10;99.90;;;;;;5033591;28;20197;-84
2022/07/26 00:43:33;;;;;;;8.05;5.10;;;16.20;99.90;;;;;;5033440;28;20186;-80
2022/07/26 00:46:04;;;;;;;7.10;4.05;;;16.30;99.90;;;;;;5033060;28;20190;-83
2022/07/26 00:48:34;;;;;;;6.40;3.70;;;16.30;99.90;;;;;;5033191;28;20221;-83
2022/07/26 00:51:07;;;;;;;6.95;3.45;;;16.40;99.90;;;;;;5033660;28;20202;-87
2022/07/26 00:53:38;;;;;;;5.15;3.10;;;16.50;99.90;;;;;;5033080;28;20568;-80
2022/07/26 00:56:08;;;;;;;5.10;2.90;;;16.60;99.90;;;;;;5033350;28;20202;-83
2022/07/26 00:58:39;;;;;;;4.78;2.78;;;16.70;99.90;;;;;;5033452;28;20641;-84
2022/07/26 01:01:10;;;;;;;4.70;2.00;;;16.80;99.90;;;;;;5033365;28;20194;-81
2022/07/26 01:03:44;;;;;;;3.67;2.28;;;16.80;99.90;;;;;;5033147;28;20197;-83
2022/07/26 01:06:17;;;;;;;4.20;2.00;;;16.90;99.90;;;;;;5033036;28;20200;-84
2022/07/26 01:08:48;;;;;;;4.22;2.08;;;17.00;99.90;;;;;;5031745;28;20621;-80
2022/07/26 01:11:18;;;;;;;2.40;1.83;;;17.10;99.90;;;;;;5032021;28;20764;-83
2022/07/26 01:13:50;;;;;;;3.38;1.83;;;17.20;99.90;;;;;;5033196;28;20998;-81
2022/07/26 01:16:20;;;;;;;5.18;1.90;;;17.30;99.90;;;;;;5032910;28;20186;-78
2022/07/26 01:18:51;;;;;;;5.25;2.22;;;17.30;99.90;;;;;;5030675;28;20194;-79
2022/07/26 01:21:24;;;;;;;3.65;2.13;;;17.30;99.90;;;;;;5032770;28;20585;-81
2022/07/26 01:23:57;;;;;;;5.53;2.00;;;17.50;99.90;;;;;;5033218;28;20198;-75
2022/07/26 01:26:27;;;;;;;1.80;1.65;;;17.70;99.90;;;;;;5036620;28;20201;-74
2022/07/26 01:28:58;;;;;;;5.30;1.88;;;17.80;99.90;;;;;;5041781;28;20663;-79
2022/07/26 01:31:29;;;;;;;3.25;1.80;;;17.80;99.90;;;;;;5043240;28;20205;-76
2022/07/26 01:33:59;;;;;;;4.95;2.10;;;17.80;99.90;;;;;;5040510;28;20197;-72
2022/07/26 01:36:30;;;;;;;3.40;2.05;;;17.80;99.90;;;;;;5042328;28;20237;-74
2022/07/26 01:39:03;;;;;;;2.60;1.55;;;18.00;99.90;;;;;;5032858;28;20665;-81
2022/07/26 01:41:34;;;;;;;1.60;1.23;;;18.10;99.90;;;;;;5037282;28;20268;-80
2022/07/26 01:44:05;;;;;;;2.58;1.38;;;18.20;99.90;;;;;;5039428;28;20194;-74
2022/07/26 01:46:36;;;;;;;1.70;1.20;;;18.30;99.90;;;;;;5036635;28;20198;-81
2022/07/26 01:49:08;;;;;;;1.55;1.20;;;18.40;99.90;;;;;;5035532;28;20218;-82
2022/07/26 01:51:38;;;;;;;1.98;1.30;;;18.40;99.90;;;;;;5050265;28;20186;-74
2022/07/26 01:54:11;;;;;;;2.55;1.73;;;18.40;99.90;;;;;;5042560;28;20194;-74
2022/07/26 01:56:42;;;;;;;2.95;1.42;;;18.60;99.90;;;;;;5049024;28;20671;-77
2022/07/26 01:59:12;;;;;;;2.97;1.60;;;18.60;99.90;;;;;;5041337;28;20190;-78
2022/07/26 02:01:43;;;;;;;2.60;1.50;;;18.70;99.90;;;;;;5039815;28;20190;-77
2022/07/26 02:06:57;;;;;;;1.23;1.13;;;18.80;99.90;;;;;;5044351;28;20198;-75
2022/07/26 02:09:30;;;;;;;1.55;0.98;;;18.80;99.90;;;;;;5044367;28;20699;-75
2022/07/26 02:12:00;;;;;;;1.40;1.10;;;18.90;99.90;;;;;;5043419;28;20186;-78
2022/07/26 02:14:31;;;;;;;1.20;0.82;;;19.00;99.90;;;;;;5047220;28;20186;-74
2022/07/26 02:17:02;;;;;;;1.15;0.63;;;19.00;99.90;;;;;;5034787;28;20200;-74
2022/07/26 02:19:33;;;;;;;1.70;0.80;;;19.00;99.90;;;;;;5043781;28;20193;-72
2022/07/26 02:22:07;;;;;;;0.60;0.60;;;19.00;99.90;;;;;;5044239;28;20197;-73
2022/07/26 02:24:39;;;;;;;0.43;0.40;;;19.10;99.90;;;;;;5044184;28;20495;-74
2022/07/26 02:27:10;;;;;;;0.30;0.30;;;19.20;99.90;;;;;;5035833;28;20194;-73
2022/07/26 02:29:41;;;;;;;1.08;0.50;;;19.30;99.90;;;;;;5036278;28;20218;-74
2022/07/26 02:32:12;;;;;;;0.57;0.40;;;19.30;99.90;;;;;;5036124;28;20533;-74
2022/07/26 02:34:42;;;;;;;0.30;0.30;;;19.30;99.90;;;;;;5035597;28;20199;-74
2022/07/26 02:37:13;;;;;;;0.63;0.47;;;19.30;99.90;;;;;;5045361;28;20229;-73
2022/07/26 02:39:46;;;;;;;1.30;0.50;;;19.40;99.90;;;;;;5041840;28;20201;-73
2022/07/26 02:42:16;;;;;;;0.75;0.38;;;19.40;99.90;;;;;;5022705;28;20634;-75
2022/07/26 02:44:47;;;;;;;0.40;0.40;;;19.30;99.90;;;;;;5036400;28;20190;-75
2022/07/26 02:47:18;;;;;;;0.70;0.50;;;19.20;99.90;;;;;;5046277;28;20189;-73
2022/07/26 02:49:48;;;;;;;0.68;0.50;;;19.20;99.90;;;;;;5034517;28;20250;-74
2022/07/26 02:52:20;;;;;;;0.57;0.47;;;19.30;99.90;;;;;;5035761;28;20190;-74
2022/07/26 02:54:52;;;;;;;0.40;0.40;;;19.40;99.90;;;;;;5036754;28;20194;-73
2022/07/26 02:57:23;;;;;;;1.30;0.40;;;19.40;99.90;;;;;;5034674;28;20193;-72
2022/07/26 02:59:53;;;;;;;0.50;0.40;;;19.50;99.90;;;;;;5035118;28;20200;-74
2022/07/26 03:02:24;;;;;;;0.82;0.50;;;19.40;99.90;;;;;;5035594;28;20249;-74
2022/07/26 03:04:55;;;;;;;0.40;0.38;;;19.30;99.90;;;;;;5035611;28;20675;-75
2022/07/26 03:07:26;;;;;;;1.30;0.70;;;19.30;99.90;;;;;;5035595;28;20243;-74
2022/07/26 03:09:58;;;;;;;0.75;0.30;;;19.40;99.90;;;;;;5038037;28;20225;-73
2022/07/26 03:12:29;;;;;;;1.27;0.40;;;19.50;99.90;;;;;;5027772;28;20247;-74
2022/07/26 03:15:00;;;;;;;0.30;0.30;;;19.20;99.90;;;;;;5042512;28;20182;-73
2022/07/26 03:17:30;;;;;;;1.02;0.30;;;19.00;99.90;;;;;;5034425;28;20183;-73
2022/07/26 03:20:01;;;;;;;0.65;0.30;;;18.70;99.90;;;;;;5037521;28;20636;-74
2022/07/26 03:22:32;;;;;;;0.40;0.40;;;18.60;99.90;;;;;;5048244;28;20224;-73
2022/07/26 03:25:05;;;;;;;0.32;0.32;;;18.50;99.90;;;;;;5040765;28;20198;-73
2022/07/26 03:27:36;;;;;;;0.25;0.22;;;18.50;99.90;;;;;;5038976;28;20198;-74
2022/07/26 03:30:07;;;;;;;0.70;0.45;;;18.50;99.90;;;;;;5036074;28;20688;-74
2022/07/26 03:32:38;;;;;;;1.30;0.40;;;18.50;99.90;;;;;;5024607;28;20213;-73
2022/07/26 03:35:10;;;;;;;0.55;0.40;;;18.40;99.90;;;;;;5017257;28;20191;-74
2022/07/26 03:37:41;;;;;;;0.82;0.40;;;18.40;99.90;;;;;;5036888;28;20701;-72
2022/07/26 03:40:14;;;;;;;1.42;0.40;;;18.40;99.90;;;;;;5042854;28;20194;-73
2022/07/26 03:42:45;;;;;;;0.88;0.30;;;18.30;99.90;;;;;;5040854;28;20197;-74
2022/07/26 03:45:16;;;;;;;0.55;0.30;;;18.50;99.90;;;;;;5045467;28;20208;-73
2022/07/26 03:47:47;;;;;;;1.38;0.40;;;18.70;99.90;;;;;;5041079;28;20185;-79
2022/07/26 03:50:17;;;;;;;1.27;0.30;;;18.80;99.90;;;;;;5042370;28;20256;-75
2022/07/26 03:52:48;;;;;;;2.15;0.88;;;18.90;99.90;;;;;;5041795;28;20198;-78
2022/07/26 03:58:08;;;;;;;1.05;0.30;;;18.80;99.90;;;;;;5045840;28;20669;-77
2022/07/26 04:00:38;;;;;;;2.15;0.40;;;18.60;99.90;;;;;;5034445;28;20198;-77
2022/07/26 04:03:09;;;;;;;0.28;0.28;;;18.40;99.90;;;;;;5045731;28;20539;-78
2022/07/26 04:05:40;;;;;;;0.45;0.30;;;18.30;99.90;;;;;;5025555;28;20193;-75
2022/07/26 04:08:10;;;;;;;0.60;0.45;;;18.30;99.90;;;;;;5042313;28;20194;-77
2022/07/26 04:10:46;;;;;;;1.13;0.40;;;18.20;99.90;;;;;;5034370;28;20198;-78
2022/07/26 04:13:17;;;;;;;0.90;0.55;;;18.10;99.90;;;;;;5045725;28;20227;-77
2022/07/26 04:15:48;;;;;;;0.82;0.40;;;18.00;99.90;;;;;;5041414;28;20191;-74
2022/07/26 04:18:18;;;;;;;0.50;0.40;;;17.90;99.90;;;;;;5043014;28;20232;-81
2022/07/26 04:20:49;;;;;;;1.25;0.60;;;17.80;99.90;;;;;;5051563;28;20191;-80
2022/07/26 04:23:20;;;;;;;0.70;0.22;;;17.80;99.90;;;;;;5041191;28;20235;-78
2022/07/26 04:25:52;;;;;;;1.30;0.50;;;17.60;99.90;;;;;;5032720;28;20200;-76
2022/07/26 04:28:25;;;;;;;0.43;0.40;;;17.50;99.90;;;;;;5053830;28;20598;-77
2022/07/26 04:30:56;;;;;;;1.02;0.40;;;17.30;99.90;;;;;;5036915;28;20200;-77
2022/07/26 04:33:26;;;;;;;0.65;0.30;;;17.20;99.90;;;;;;5045023;28;20189;-79
2022/07/26 04:35:57;;;;;;;0.50;0.38;;;17.10;99.90;;;;;;5038822;28;20237;-77
2022/07/26 04:38:28;;;;;;;0.75;0.30;;;16.90;99.90;;;;;;5041933;28;20193;-77
2022/07/26 04:41:01;;;;;;;0.57;0.30;;;16.80;99.90;;;;;;5037405;28;20571;-77
2022/07/26 04:43:31;;;;;;;0.60;0.30;;;16.80;99.90;;;;;;5039970;28;20194;-76
2022/07/26 04:46:02;;;;;;;0.50;0.30;;;16.80;99.90;;;;;;5052626;28;20193;-76
2022/07/26 04:48:33;;;;;;;0.80;0.20;;;16.70;99.90;;;;;;5036791;28;20186;-76
2022/07/26 04:51:03;;;;;;;1.05;0.30;;;16.50;99.90;;;;;;5039485;28;20183;-77
2022/07/26 04:53:34;;;;;;;2.83;0.20;;;16.40;99.90;;;;;;5044651;28;20194;-78
2022/07/26 04:56:07;;;;;;;0.30;0.30;;;16.30;99.90;;;;;;5034217;28;20190;-78
2022/07/26 04:58:38;;;;;;;0.20;0.20;;;16.20;99.90;;;;;;5033315;28;20660;-74
2022/07/26 05:01:08;;;;;;;0.25;0.20;;;16.10;99.90;;;;;;5033223;28;20209;-75
2022/07/26 05:03:39;;;;;;;1.45;0.22;;;16.00;99.90;;;;;;5033619;28;20220;-76
2022/07/26 05:06:10;;;;;;;0.77;0.30;;;16.00;99.90;;;;;;5033208;28;20194;-77
2022/07/26 05:08:42;;;;;;;0.32;0.30;;;15.90;99.90;;;;;;5033229;28;20201;-78
2022/07/26 05:11:14;;;;;;;0.20;0.20;;;15.90;99.90;;;;;;5033045;28;20552;-79
2022/07/26 05:13:45;;;;;;;0.20;0.20;;;15.80;99.90;;;;;;5032073;28;20194;-80
2022/07/26 05:16:15;;;;;;;0.77;0.20;;;15.80;99.90;;;;;;5033040;28;20198;-76
2022/07/26 05:18:49;;;;;;;0.40;0.25;;;15.80;99.90;;;;;;5021053;28;20201;-75
2022/07/26 05:21:21;;;;;;;0.20;0.20;;;15.70;99.90;;;;;;5013373;28;20198;-75
2022/07/26 05:23:51;;;;;;;1.33;0.38;;;15.70;99.90;;;;;;5013395;28;20191;-77
2022/07/26 05:26:24;;;;;;;1.55;0.30;;;15.70;99.90;;;;;;5013229;28;20194;-77
2022/07/26 05:28:55;;;;;;;0.77;0.43;;;15.80;99.90;;;;;;5012982;28;20656;-76
2022/07/26 05:31:25;;;;;;;0.28;0.20;;;15.80;99.90;;;;;;5016034;28;20554;-74
2022/07/26 05:33:56;;;;;;;1.45;0.30;;;15.80;99.90;;;;;;5032655;28;20220;-72
2022/07/26 05:36:27;;;;;;;1.08;0.60;;;15.90;99.90;;;;;;5035530;28;20230;-77
2022/07/26 05:38:57;;;;;;;0.45;0.30;;;16.00;99.90;;;;;;5032653;28;20218;-76
2022/07/26 05:41:30;;;;;;;0.22;0.22;;;16.10;99.90;;;;;;5032930;28;20198;-75
2022/07/26 05:44:02;;;;;;;0.45;0.20;;;16.10;99.90;;;;;;5032085;28;20186;-77
2022/07/26 05:46:32;;;;;;;0.40;0.30;;;16.00;99.90;;;;;;5032226;28;20642;-77
2022/07/26 05:49:03;;;;;;;0.82;0.30;;;16.00;99.90;;;;;;5032899;28;20221;-76
2022/07/26 05:51:34;;;;;;;0.75;0.40;;;15.90;99.90;;;;;;5032703;28;20182;-76
2022/07/26 05:54:05;;;;;;;0.57;0.20;;;15.90;99.90;;;;;;5032387;28;20194;-76
2022/07/26 05:56:40;;;;;;;0.73;0.40;;;15.90;99.90;;;;;;5032270;28;20204;-76
2022/07/26 05:59:11;;;;;;;0.85;0.50;;;15.70;99.90;;;;;;5032598;28;20201;-76
2022/07/26 06:01:42;;;;;;;1.58;0.25;;;15.70;99.90;;;;;;5032597;28;20191;-76
2022/07/26 06:04:12;;;;;;;0.47;0.28;;;15.50;99.90;;;;;;5022841;28;20236;-77
2022/07/26 06:06:43;;;;;;;0.43;0.30;;;15.50;99.90;;;;;;5012843;28;20584;-76
2022/07/26 06:09:14;;;;;;;1.48;0.32;;;15.50;99.90;;;;;;5012708;28;20214;-75
2022/07/26 06:11:46;;;;;;;2.42;0.40;;;15.50;99.90;;;;;;5023804;28;20656;-77
2022/07/26 06:14:17;;;;;;;0.20;0.20;;;15.50;99.90;;;;;;5032482;28;20190;-76
2022/07/26 06:16:48;;;;;;;0.40;0.38;;;15.40;99.90;;;;;;5031919;28;20198;-74
2022/07/26 06:19:19;;;;;;;0.80;0.30;;;15.30;99.90;;;;;;5032054;28;20197;-80
2022/07/26 06:21:50;;;;;;;0.20;0.20;;;15.10;99.90;;;;;;5032533;28;20194;-76
2022/07/26 06:24:20;;;;;;;0.52;0.30;;;15.00;99.90;;;;;;5032160;28;20198;-78
2022/07/26 06:26:54;;;;;;;0.80;0.35;;;14.90;99.90;;;;;;5032216;28;20195;-77
2022/07/26 06:29:25;;;;;;;1.33;0.40;;;14.90;99.90;;;;;;5032314;28;20705;-76
2022/07/26 06:31:56;;;;;;;0.43;0.38;;;14.80;99.90;;;;;;5027671;28;20225;-76
2022/07/26 06:34:27;;;;;;;0.75;0.32;;;14.80;99.90;;;;;;5031840;28;20634;-76
2022/07/26 06:36:57;;;;;;;0.68;0.30;;;14.70;99.90;;;;;;5037136;28;20240;-77
2022/07/26 06:39:29;;;;;;;0.35;0.20;;;14.70;99.90;;;;;;5032419;28;20198;-74
2022/07/26 06:42:01;;;;;;;1.13;0.20;;;14.70;99.90;;;;;;5032263;28;20638;-77
2022/07/26 06:44:32;;;;;;;0.35;0.30;;;14.60;99.90;;;;;;5031914;28;20198;-76
2022/07/26 06:47:03;;;;;;;0.60;0.38;;;14.50;99.90;;;;;;5031796;28;20649;-77
2022/07/26 06:49:33;;;;;;;1.27;0.30;;;14.40;99.90;;;;;;5031911;28;20217;-78
2022/07/26 06:52:04;;;;;;;4.10;0.32;;;14.30;99.90;;;;;;5031694;28;20190;-73
2022/07/26 06:54:35;;;;;;;1.70;0.47;;;14.30;99.90;;;;;;5031878;28;20198;-73
2022/07/26 06:57:07;;;;;;;0.98;0.40;;;14.20;99.90;;;;;;5032094;28;20194;-74
2022/07/26 06:59:38;;;;;;;1.33;0.47;;;14.20;99.90;;;;;;5031996;28;20562;-73
2022/07/26 07:02:09;;;;;;;0.40;0.30;;;14.10;99.90;;;;;;5032086;28;20198;-73
2022/07/26 07:04:40;;;;;;;0.52;0.30;;;14.00;99.90;;;;;;5031804;28;20596;-74
2022/07/26 07:07:13;;;;;;;0.73;0.30;;;13.90;99.90;;;;;;5033439;28;20198;-74
2022/07/26 07:09:44;;;;;;;1.92;0.38;;;13.80;99.90;;;;;;5034778;28;20580;-74
2022/07/26 07:12:16;;;;;;;1.70;0.30;;;13.70;99.90;;;;;;5035510;28;20190;-74
2022/07/26 07:14:47;;;;;;;0.85;0.35;;;13.50;99.90;;;;;;5034336;28;20201;-72
2022/07/26 07:17:21;;;;;;;0.55;0.30;;;13.50;99.90;;;;;;5035426;28;20202;-73
2022/07/26 07:19:52;;;;;;;0.55;0.30;;;13.40;99.90;;;;;;5034914;28;20591;-73
2022/07/26 07:22:22;;;;;;;0.70;0.50;;;13.30;99.90;;;;;;5035269;28;20194;-72
2022/07/26 07:24:53;;;;;;;1.30;0.50;;;13.30;99.90;;;;;;5034408;28;20187;-72
2022/07/26 07:27:26;;;;;;;3.03;0.40;;;13.30;99.90;;;;;;5035222;28;20190;-73
2022/07/26 07:29:56;;;;;;;1.35;0.40;;;13.20;99.90;;;;;;5035132;28;20247;-73
2022/07/26 07:32:27;;;;;;;0.90;0.40;;;13.20;99.90;;;;;;5034678;28;20190;-74
2022/07/26 07:34:58;;;;;;;1.05;0.40;;;13.10;99.90;;;;;;5035726;28;20548;-73
2022/07/26 07:37:28;;;;;;;1.70;0.50;;;13.10;99.90;;;;;;5042574;28;20230;-72
2022/07/26 07:39:59;;;;;;;1.15;0.35;;;13.10;99.90;;;;;;5035189;28;20202;-73
2022/07/26 07:42:32;;;;;;;2.22;0.55;;;13.00;99.90;;;;;;5034464;28;20190;-73
2022/07/26 07:45:02;;;;;;;0.70;0.43;;;13.00;99.90;;;;;;5034695;28;20198;-74
2022/07/26 07:47:35;;;;;;;1.35;0.50;;;13.00;99.90;;;;;;5034808;28;20186;-74
2022/07/26 07:50:07;;;;;;;0.70;0.40;;;12.90;99.90;;;;;;5034669;28;20222;-74
2022/07/26 07:52:38;;;;;;;2.03;0.50;;;12.90;99.90;;;;;;5034107;28;20205;-74
2022/07/26 07:55:10;;;;;;;2.00;0.50;;;12.80;99.90;;;;;;5034268;28;20195;-73
2022/07/26 07:57:42;;;;;;;0.63;0.30;;;12.90;99.90;;;;;;5030382;28;20673;-73
2022/07/26 08:00:15;;;;;;;5.95;0.60;;;12.80;99.90;;;;;;5014769;28;20195;-74
2022/07/26 08:02:46;;;;;;;1.10;0.50;;;12.80;99.90;;;;;;5014696;28;20191;-74
2022/07/26 08:05:17;;;;;;;1.05;0.40;;;12.90;99.90;;;;;;5014743;28;20655;-76
2022/07/26 08:07:47;;;;;;;1.63;0.70;;;12.80;99.90;;;;;;5032986;28;20548;-72
2022/07/26 08:10:18;;;;;;;2.40;0.50;;;12.80;99.90;;;;;;5031041;28;20214;-74
2022/07/26 08:12:51;;;;;;;1.02;0.50;;;12.80;99.90;;;;;;5034053;28;20194;-76
2022/07/26 08:15:22;;;;;;;1.48;0.57;;;12.80;99.90;;;;;;5034186;28;20200;-74
2022/07/26 08:17:53;;;;;;;1.27;0.52;;;12.80;99.90;;;;;;5033825;28;20234;-75
2022/07/26 08:20:24;;;;;;;0.40;0.40;;;12.70;99.90;;;;;;5034268;28;20194;-73
2022/07/26 08:22:55;;;;;;;0.90;0.50;;;12.70;99.90;;;;;;5033587;28;20199;-76
2022/07/26 08:25:26;;;;;;;1.45;0.50;;;12.70;99.90;;;;;;5034147;28;20239;-77
2022/07/26 08:27:58;;;;;;;2.55;0.60;;;12.70;99.90;;;;;;5033629;28;20206;-74
2022/07/26 08:30:29;;;;;;;1.25;0.57;;;12.70;99.90;;;;;;5033602;28;20214;-73
2022/07/26 08:33:00;;;;;;;1.20;0.50;;;12.70;99.90;;;;;;5033966;28;20191;-77
2022/07/26 08:35:30;;;;;;;1.45;0.47;;;12.70;99.90;;;;;;5035367;28;20617;-72
2022/07/26 08:38:01;;;;;;;2.30;0.50;;;12.70;99.90;;;;;;5030267;28;20198;-76
2022/07/26 08:40:32;;;;;;;0.90;0.60;;;12.70;99.90;;;;;;5033899;28;20194;-77
2022/07/26 08:43:05;;;;;;;0.40;0.40;;;12.70;99.90;;;;;;5033160;28;20213;-74
2022/07/26 08:45:36;;;;;;;1.75;0.50;;;12.60;99.90;;;;;;5033569;28;20697;-78
2022/07/26 08:48:09;;;;;;;1.48;0.70;;;12.70;99.90;;;;;;5028699;28;20538;-75
2022/07/26 08:50:41;;;;;;;1.90;0.77;;;12.60;99.90;;;;;;5033410;28;20579;-74
2022/07/26 08:53:13;;;;;;;1.45;0.68;;;12.60;99.90;;;;;;5033775;28;20190;-77
2022/07/26 08:55:44;;;;;;;0.40;0.40;;;12.60;99.90;;;;;;5013722;28;20561;-75
2022/07/26 08:58:17;;;;;;;0.95;0.70;;;12.60;99.90;;;;;;5013800;28;20198;-76
2022/07/26 09:00:47;;;;;;;4.07;0.60;;;12.60;99.90;;;;;;5013690;28;20195;-76
2022/07/26 09:03:28;;;;;;;2.60;0.63;;;12.60;99.90;;;;;;5013685;28;20191;-75
2022/07/26 09:05:59;;;;;;;1.02;0.57;;;12.60;99.90;;;;;;5013387;28;20195;-72
2022/07/26 09:08:30;;;;;;;0.90;0.50;;;12.60;99.90;;;;;;5013737;28;20226;-77
2022/07/26 09:11:01;;;;;;;1.70;0.43;;;12.60;99.90;;;;;;5013559;28;20580;-76
2022/07/26 09:13:52;;;;;;;0.52;0.40;;;12.60;99.90;;;;;;5013544;28;20202;-75
2022/07/26 09:16:23;;;;;;;1.42;0.63;;;12.60;99.90;;;;;;5013379;28;20191;-72
2022/07/26 09:18:54;;;;;;;1.38;0.57;;;12.60;99.90;;;;;;5013562;28;20202;-75
2022/07/26 09:21:35;;;;;;;1.65;0.57;;;12.50;99.90;;;;;;5013336;28;20198;-74
2022/07/26 09:24:06;;;;;;;3.30;0.70;;;12.60;99.90;;;;;;5013328;28;20282;-75
2022/07/26 09:26:37;;;;;;;0.73;0.40;;;12.60;99.90;;;;;;5013388;28;20191;-76
2022/07/26 09:29:11;;;;;;;1.63;0.70;;;12.50;99.90;;;;;;5012765;28;20685;-76
2022/07/26 09:31:43;;;;;;;0.75;0.50;;;12.60;99.90;;;;;;5049182;28;20695;-77
2022/07/26 09:34:13;;;;;;;1.75;0.50;;;12.50;99.90;;;;;;5052621;28;20197;-77
2022/07/26 09:36:54;;;;;;;0.40;0.40;;;12.50;99.90;;;;;;5039550;28;20238;-76
2022/07/26 09:39:25;;;;;;;0.75;0.45;;;12.50;99.90;;;;;;5052757;28;20217;-73
2022/07/26 09:41:55;;;;;;;1.67;0.50;;;12.50;99.90;;;;;;5043107;28;20197;-73
2022/07/26 09:44:31;;;;;;;1.40;0.40;;;12.50;99.90;;;;;;5032882;28;20194;-73
2022/07/26 09:47:02;;;;;;;1.77;0.50;;;12.50;99.90;;;;;;5032914;28;20637;-73
2022/07/26 09:49:32;;;;;;;0.88;0.40;;;12.50;99.90;;;;;;5030453;28;20187;-73
2022/07/26 09:52:03;;;;;;;0.63;0.32;;;12.50;99.90;;;;;;5031473;28;20221;-73
2022/07/26 09:54:38;;;;;;;1.25;0.60;;;12.50;99.90;;;;;;5030979;28;20221;-74
2022/07/26 09:57:08;;;;;;;0.50;0.38;;;12.50;99.90;;;;;;5032954;28;20194;-74
2022/07/26 09:59:41;;;;;;;0.73;0.40;;;12.60;99.90;;;;;;5032466;28;20186;-75
2022/07/26 10:02:12;;;;;;;1.83;0.50;;;12.50;99.90;;;;;;5032583;28;20529;-76
2022/07/26 10:04:44;;;;;;;0.32;0.32;;;12.50;99.90;;;;;;5032370;28;20197;-75
2022/07/26 10:07:16;;;;;;;1.63;0.50;;;12.60;99.90;;;;;;5032371;28;20550;-75
2022/07/26 10:09:52;;;;;;;1.23;0.47;;;12.50;99.90;;;;;;5032595;28;20653;-76
2022/07/26 10:12:25;;;;;;;1.25;0.50;;;12.60;99.90;;;;;;5042361;28;20240;-75
2022/07/26 10:14:57;;;;;;;0.68;0.47;;;12.50;99.90;;;;;;5037651;28;20197;-75
2022/07/26 10:17:48;;;;;;;1.70;0.63;;;12.60;99.90;;;;;;5032795;28;20559;-75
2022/07/26 10:20:41;;;;;;;2.05;0.55;;;12.60;99.90;;;;;;5031214;28;20190;-74
2022/07/26 10:23:36;;;;;;;1.00;0.50;;;12.60;99.90;;;;;;5033302;28;20285;-74
2022/07/26 10:26:08;;;;;;;0.60;0.38;;;12.60;99.90;;;;;;5041016;28;20233;-73
2022/07/26 10:28:40;;;;;;;0.60;0.40;;;12.60;99.90;;;;;;5034017;28;20200;-73
2022/07/26 10:31:31;;;;;;;0.55;0.40;;;12.50;99.90;;;;;;5039947;28;20213;-73
2022/07/26 10:34:02;;;;;;;0.90;0.50;;;12.60;99.90;;;;;;5038992;28;20657;-73
2022/07/26 10:36:36;;;;;;;1.45;0.50;;;12.50;99.90;;;;;;5042692;28;20271;-73
2022/07/26 10:39:12;;;;;;;1.20;0.40;;;12.60;99.90;;;;;;5029897;28;20550;-74
2022/07/26 10:41:46;;;;;;;0.55;0.40;;;12.60;99.90;;;;;;5039035;28;20193;-72
2022/07/26 10:44:34;;;;;;;0.65;0.40;;;12.60;99.90;;;;;;5040125;28;20190;-73
2022/07/26 10:47:17;;;;;;;0.80;0.50;;;12.60;99.90;;;;;;5043967;28;20550;-73
2022/07/26 10:49:57;;;;;;;0.68;0.50;;;12.60;99.90;;;;;;5043359;28;20277;-73
2022/07/26 10:52:29;;;;;;;0.93;0.57;;;12.50;99.90;;;;;;5043040;28;20692;-72
2022/07/26 10:55:20;;;;;;;1.15;0.60;;;12.50;99.90;;;;;;5021230;28;20182;-73
2022/07/26 10:57:51;;;;;;;1.65;0.40;;;12.50;99.90;;;;;;5029384;28;20206;-74
2022/07/26 11:00:27;;;;;;;1.15;0.40;;;12.50;99.90;;;;;;5044796;28;20203;-74
2022/07/26 11:03:04;;;;;;;0.57;0.47;;;12.50;99.90;;;;;;5035605;28;20190;-74
2022/07/26 11:05:35;;;;;;;0.55;0.40;;;12.50;99.90;;;;;;5047750;28;20204;-74
2022/07/26 11:08:11;;;;;;;2.17;0.50;;;12.50;99.90;;;;;;5035474;28;20240;-74
2022/07/26 11:10:43;;;;;;;0.90;0.30;;;12.40;99.90;;;;;;5044486;28;20553;-73
2022/07/26 11:13:16;;;;;;;0.95;0.47;;;12.40;99.90;;;;;;5055353;28;20728;-74
2022/07/26 11:15:49;;;;;;;2.50;0.35;;;12.40;99.90;;;;;;5054994;28;20221;-74
2022/07/26 11:18:26;;;;;;;2.25;0.40;;;12.30;99.90;;;;;;5055246;28;20190;-75
2022/07/26 11:20:58;;;;;;;0.70;0.40;;;12.40;99.90;;;;;;5053571;28;20186;-75
2022/07/26 11:23:34;;;;;;;0.82;0.40;;;12.30;99.90;;;;;;5043819;28;20193;-74
2022/07/26 11:26:12;;;;;;;0.50;0.50;;;12.20;99.90;;;;;;5046897;28;20193;-74
2022/07/26 11:29:00;;;;;;;1.92;0.40;;;12.20;99.90;;;;;;5042627;28;20200;-73
2022/07/26 11:31:37;;;;;;;1.38;0.40;;;12.20;99.90;;;;;;5042410;28;20206;-74
2022/07/26 11:34:16;;;;;;;1.20;0.60;;;12.20;99.90;;;;;;5045510;28;20193;-77
2022/07/26 11:36:48;;;;;;;0.55;0.32;;;12.20;99.90;;;;;;5045203;28;20229;-76
2022/07/26 11:39:22;;;;;;;1.73;0.50;;;12.10;99.90;;;;;;5042661;28;20192;-76
2022/07/26 11:41:58;;;;;;;0.88;0.40;;;12.10;99.90;;;;;;5044460;28;20196;-77
2022/07/26 11:44:29;;;;;;;2.75;0.50;;;12.10;99.90;;;;;;5040492;28;20204;-77
2022/07/26 11:47:01;;;;;;;0.93;0.50;;;12.10;99.90;;;;;;5035877;28;20550;-76
2022/07/26 11:49:34;;;;;;;1.95;0.60;;;12.00;99.90;;;;;;5044704;28;20189;-75
2022/07/26 11:52:06;;;;;;;1.08;0.47;;;12.00;99.90;;;;;;5042035;28;20612;-76
2022/07/26 11:54:48;;;;;;;0.57;0.47;;;11.90;99.90;;;;;;5037658;28;20198;-77
2022/07/26 11:57:19;;;;;;;2.90;0.60;;;11.90;99.90;;;;;;5045059;28;20198;-76
2022/07/26 11:59:51;;;;;;;1.17;0.60;;;11.90;99.90;;;;;;5043572;28;20190;-76
2022/07/26 12:02:24;;;;;;;0.65;0.55;;;11.90;99.90;;;;;;5041096;28;20601;-75
2022/07/26 12:05:16;;;;;;;1.92;0.70;;;11.90;99.90;;;;;;5034250;28;20194;-74
2022/07/26 12:08:01;;;;;;;1.38;0.52;;;11.90;99.90;;;;;;5037802;28;20259;-74
2022/07/26 12:10:35;;;;;;;1.05;0.43;;;11.90;99.90;;;;;;5038405;28;20622;-74
2022/07/26 12:13:13;;;;;;;0.82;0.50;;;11.90;99.90;;;;;;5037782;28;20214;-74
2022/07/26 12:15:48;;;;;;;0.95;0.50;;;11.90;99.90;;;;;;5029639;28;20191;-73
2022/07/26 12:18:36;;;;;;;1.75;0.50;;;12.00;99.90;;;;;;5028244;28;20187;-74
2022/07/26 12:21:10;;;;;;;2.00;0.50;;;11.80;99.90;;;;;;5033465;28;20186;-74
2022/07/26 12:23:49;;;;;;;1.23;0.50;;;11.90;99.90;;;;;;5033966;28;20197;-75
2022/07/26 12:26:25;;;;;;;1.80;0.52;;;11.90;99.90;;;;;;5036990;28;20186;-74
2022/07/26 12:28:57;;;;;;;1.48;0.57;;;11.90;99.90;;;;;;5014103;28;20190;-73
2022/07/26 12:31:29;;;;;;;0.65;0.45;;;11.80;99.90;;;;;;5030376;28;20218;-74
2022/07/26 12:34:00;;;;;;;1.73;0.60;;;11.80;99.90;;;;;;5034209;28;20228;-76
2022/07/26 12:36:36;;;;;;;0.70;0.45;;;11.80;99.90;;;;;;5043452;28;20234;-75
2022/07/26 12:39:07;;;;;;;0.50;0.40;;;11.80;99.90;;;;;;5037261;28;20185;-77
2022/07/26 12:41:39;;;;;;;0.95;0.40;;;11.80;99.90;;;;;;5029225;28;20195;-74
2022/07/26 12:44:11;;;;;;;0.32;0.32;;;11.80;99.90;;;;;;5037614;28;20193;-73
2022/07/26 12:46:43;;;;;;;0.52;0.50;;;11.80;99.90;;;;;;5034329;28;20187;-74
2022/07/26 12:49:14;;;;;;;0.95;0.55;;;11.70;99.90;;;;;;5035272;28;20209;-73
2022/07/26 12:51:47;;;;;;;0.75;0.45;;;11.70;99.90;;;;;;5045664;28;20680;-74
2022/07/26 12:54:17;;;;;;;0.43;0.40;;;11.70;99.90;;;;;;5038097;28;20224;-74
2022/07/26 12:56:48;;;;;;;1.65;0.60;;;11.70;99.90;;;;;;5017348;28;20595;-76
2022/07/26 12:59:19;;;;;;;0.90;0.60;;;11.60;99.90;;;;;;5033793;28;20198;-74
2022/07/26 13:01:49;;;;;;;1.35;0.82;;;11.60;99.90;;;;;;5033401;28;20199;-74
2022/07/26 13:04:20;;;;;;;1.58;0.50;;;11.60;99.90;;;;;;5033276;28;20190;-74
2022/07/26 13:06:53;;;;;;;1.65;0.85;;;11.60;99.90;;;;;;5032961;28;20204;-73
2022/07/26 13:09:23;;;;;;;1.05;0.55;;;11.60;99.90;;;;;;5032956;28;20186;-73
2022/07/26 13:11:54;;;;;;;1.73;0.63;;;11.60;99.90;;;;;;5032458;28;20210;-74
2022/07/26 13:14:25;;;;;;;1.27;0.60;;;11.60;99.90;;;;;;5032908;28;20649;-74
2022/07/26 13:16:56;;;;;;;1.13;0.50;;;11.60;99.90;;;;;;5032816;28;20194;-73